Time;durP1;ratioP1;P1;durP2;ratioP2;P2;SDS_P1;SDS_P2;PMS_P1;PMS_P2;Temp;Humidity;BMP_temperature;BMP_pressure;BME280_temperature;BME280_humidity;BME280_pressure;Samples;Min_cycle;Max_cycle;Signal;HPM_P1;HPM_P2
2022/10/18 00:01:28;;;;;;;35.97;25.10;;;;;;;;;;5040203;28;20064;-57
2022/10/18 00:03:53;;;;;;;30.70;23.83;;;;;;;;;;5040659;28;20029;-58
2022/10/18 00:06:18;;;;;;;31.98;22.77;;;;;;;;;;5038995;28;20095;-57
2022/10/18 00:08:44;;;;;;;35.97;23.90;;;;;;;;;;5039028;28;20070;-57
2022/10/18 00:11:09;;;;;;;35.72;24.00;;;;;;;;;;5039142;28;20009;-57
2022/10/18 00:13:34;;;;;;;35.10;24.42;;;;;;;;;;5040000;28;20473;-57
2022/10/18 00:16:01;;;;;;;34.63;24.55;;;;;;;;;;5037075;28;20688;-58
2022/10/18 00:18:27;;;;;;;31.42;23.15;;;;;;;;;;5037543;28;20017;-59
2022/10/18 00:20:59;;;;;;;32.05;24.30;;;;;;;;;;5039377;28;20056;-58
2022/10/18 00:23:25;;;;;;;32.55;24.52;;;;;;;;;;5035775;28;20026;-58
2022/10/18 00:26:10;;;;;;;35.65;25.30;;;;;;;;;;5037604;28;20029;-58
2022/10/18 00:28:37;;;;;;;33.10;24.23;;;;;;;;;;5038084;28;20078;-58
2022/10/18 00:31:13;;;;;;;31.27;24.00;;;;;;;;;;5028004;28;20037;-58
2022/10/18 00:33:39;;;;;;;35.08;23.45;;;;;;;;;;5035052;28;20029;-58
2022/10/18 00:36:04;;;;;;;36.72;23.25;;;;;;;;;;5038283;28;20934;-58
2022/10/18 00:38:29;;;;;;;32.72;23.20;;;;;;;;;;5038276;28;20066;-58
2022/10/18 00:40:54;;;;;;;31.52;22.33;;;;;;;;;;5037164;28;20021;-58
2022/10/18 00:43:20;;;;;;;34.90;24.25;;;;;;;;;;5039006;28;20048;-58
2022/10/18 00:45:45;;;;;;;31.40;23.55;;;;;;;;;;5036504;28;20030;-58
2022/10/18 00:48:12;;;;;;;33.75;23.17;;;;;;;;;;5037602;28;20035;-58
2022/10/18 00:50:38;;;;;;;36.33;23.85;;;;;;;;;;5040511;28;20502;-58
2022/10/18 00:53:05;;;;;;;34.88;24.05;;;;;;;;;;5039539;28;20638;-58
2022/10/18 00:55:32;;;;;;;33.92;25.00;;;;;;;;;;5039510;28;20029;-59
2022/10/18 00:57:57;;;;;;;32.80;23.00;;;;;;;;;;5039568;28;20051;-58
2022/10/18 01:00:23;;;;;;;33.40;23.20;;;;;;;;;;5038521;28;20025;-58
2022/10/18 01:02:48;;;;;;;33.38;22.67;;;;;;;;;;5038238;28;20523;-58
2022/10/18 01:05:14;;;;;;;28.92;21.50;;;;;;;;;;5038506;28;20398;-58
2022/10/18 01:07:42;;;;;;;36.83;25.08;;;;;;;;;;5039340;28;20583;-58
2022/10/18 01:10:26;;;;;;;32.00;23.10;;;;;;;;;;5037874;28;20527;-58
2022/10/18 01:13:10;;;;;;;32.35;22.55;;;;;;;;;;5035813;28;20356;-58
2022/10/18 01:15:38;;;;;;;34.13;23.67;;;;;;;;;;5036849;28;20041;-58
2022/10/18 01:18:23;;;;;;;33.58;22.38;;;;;;;;;;5035559;28;20029;-61
2022/10/18 01:20:56;;;;;;;37.38;23.67;;;;;;;;;;5038149;28;20112;-58
2022/10/18 01:23:37;;;;;;;32.30;23.17;;;;;;;;;;5035938;28;20025;-58
2022/10/18 01:26:12;;;;;;;35.85;23.65;;;;;;;;;;5037013;28;20107;-58
2022/10/18 01:28:58;;;;;;;30.90;22.30;;;;;;;;;;5036546;28;20021;-58
2022/10/18 01:31:36;;;;;;;33.22;23.50;;;;;;;;;;5037011;28;20832;-60
2022/10/18 01:34:04;;;;;;;31.70;22.77;;;;;;;;;;5037154;28;20307;-61
2022/10/18 01:36:38;;;;;;;30.45;21.67;;;;;;;;;;5035508;28;20031;-61
2022/10/18 01:39:05;;;;;;;32.90;22.27;;;;;;;;;;5034150;28;20200;-62
2022/10/18 01:41:32;;;;;;;30.40;23.02;;;;;;;;;;5034496;28;20025;-61
2022/10/18 01:43:59;;;;;;;31.23;21.85;;;;;;;;;;5038434;28;20100;-60
2022/10/18 01:46:25;;;;;;;38.33;23.98;;;;;;;;;;5037788;28;20036;-61
2022/10/18 01:48:51;;;;;;;35.42;23.63;;;;;;;;;;5030636;28;20021;-61
2022/10/18 01:51:26;;;;;;;32.92;22.83;;;;;;;;;;5038305;28;20159;-61
2022/10/18 01:53:52;;;;;;;32.28;22.15;;;;;;;;;;5036384;28;20029;-60
2022/10/18 01:56:21;;;;;;;32.88;23.00;;;;;;;;;;5036543;28;20795;-60
2022/10/18 01:58:46;;;;;;;35.42;22.95;;;;;;;;;;5035395;28;20562;-61
2022/10/18 02:01:20;;;;;;;35.80;24.13;;;;;;;;;;5038570;28;20140;-60
2022/10/18 02:03:47;;;;;;;36.50;22.50;;;;;;;;;;5036316;28;20103;-60
2022/10/18 02:06:27;;;;;;;31.60;22.75;;;;;;;;;;5033941;28;20511;-62
2022/10/18 02:08:54;;;;;;;28.13;22.27;;;;;;;;;;5036641;28;20392;-60
2022/10/18 02:11:19;;;;;;;32.95;22.20;;;;;;;;;;5034779;28;20029;-61
2022/10/18 02:13:46;;;;;;;35.92;23.45;;;;;;;;;;5031618;28;20082;-60
2022/10/18 02:16:24;;;;;;;31.33;21.65;;;;;;;;;;5034403;28;20037;-60
2022/10/18 02:19:13;;;;;;;30.55;22.00;;;;;;;;;;5050867;28;20142;-65
2022/10/18 02:21:40;;;;;;;32.45;21.65;;;;;;;;;;5031650;28;20470;-64
2022/10/18 02:24:05;;;;;;;32.35;22.45;;;;;;;;;;5035266;28;20036;-60
2022/10/18 02:26:31;;;;;;;31.60;21.95;;;;;;;;;;5039591;28;20029;-61
2022/10/18 02:28:56;;;;;;;34.53;22.55;;;;;;;;;;5037668;28;20040;-63
2022/10/18 02:31:29;;;;;;;38.97;23.17;;;;;;;;;;5038289;28;20432;-63
2022/10/18 02:34:00;;;;;;;35.88;22.30;;;;;;;;;;5038195;28;20025;-61
2022/10/18 02:36:44;;;;;;;35.20;23.60;;;;;;;;;;5029888;28;20032;-62
2022/10/18 02:39:13;;;;;;;34.17;22.95;;;;;;;;;;5038627;28;20025;-62
2022/10/18 02:41:39;;;;;;;32.03;21.60;;;;;;;;;;5034777;28;20030;-61
2022/10/18 02:44:04;;;;;;;31.05;20.20;;;;;;;;;;5034693;28;20433;-61
2022/10/18 02:46:29;;;;;;;29.95;21.50;;;;;;;;;;5038107;28;20401;-61
2022/10/18 02:48:55;;;;;;;33.05;21.77;;;;;;;;;;5040042;28;20090;-61
2022/10/18 02:51:20;;;;;;;31.58;21.30;;;;;;;;;;5036808;28;20060;-61
2022/10/18 02:53:45;;;;;;;33.17;21.73;;;;;;;;;;5032674;28;20591;-61
2022/10/18 02:56:10;;;;;;;32.53;21.42;;;;;;;;;;5036423;28;20095;-62
2022/10/18 02:58:36;;;;;;;29.52;19.83;;;;;;;;;;5037667;28;20480;-63
2022/10/18 03:01:01;;;;;;;34.60;21.25;;;;;;;;;;5041255;28;20531;-62
2022/10/18 03:03:26;;;;;;;29.23;20.40;;;;;;;;;;5044240;28;20708;-62
2022/10/18 03:05:51;;;;;;;32.10;20.90;;;;;;;;;;5043585;28;20377;-62
2022/10/18 03:08:17;;;;;;;33.38;23.90;;;;;;;;;;5042571;28;20433;-61
2022/10/18 03:10:43;;;;;;;31.42;21.35;;;;;;;;;;5041644;28;20044;-61
2022/10/18 03:13:08;;;;;;;29.80;20.70;;;;;;;;;;5042530;28;20357;-63
2022/10/18 03:15:33;;;;;;;33.58;22.23;;;;;;;;;;5043185;28;20508;-62
2022/10/18 03:17:58;;;;;;;33.22;22.73;;;;;;;;;;5041916;28;20044;-61
2022/10/18 03:20:24;;;;;;;31.33;21.80;;;;;;;;;;5043808;28;20031;-59
2022/10/18 03:22:49;;;;;;;34.92;22.85;;;;;;;;;;5045222;28;20084;-58
2022/10/18 03:25:14;;;;;;;31.98;21.42;;;;;;;;;;5042677;28;20025;-59
2022/10/18 03:27:39;;;;;;;33.08;21.20;;;;;;;;;;5044405;28;20448;-60
2022/10/18 03:30:05;;;;;;;33.72;21.23;;;;;;;;;;5042887;28;20971;-60
2022/10/18 03:32:30;;;;;;;31.63;21.50;;;;;;;;;;5044396;28;20029;-59
2022/10/18 03:34:55;;;;;;;29.80;20.30;;;;;;;;;;5045539;28;20029;-59
2022/10/18 03:37:21;;;;;;;32.88;21.50;;;;;;;;;;5044850;28;20036;-59
2022/10/18 03:39:46;;;;;;;30.35;21.42;;;;;;;;;;5043422;28;20032;-58
2022/10/18 03:42:11;;;;;;;34.17;21.27;;;;;;;;;;5041379;28;20511;-59
2022/10/18 03:44:36;;;;;;;36.20;22.85;;;;;;;;;;5042137;28;20025;-60
2022/10/18 03:47:03;;;;;;;37.53;24.15;;;;;;;;;;5039887;28;20048;-59
2022/10/18 03:49:28;;;;;;;37.03;23.23;;;;;;;;;;5042306;28;20025;-59
2022/10/18 03:51:53;;;;;;;34.03;22.10;;;;;;;;;;5046666;28;20695;-60
2022/10/18 03:54:19;;;;;;;32.70;22.50;;;;;;;;;;5040843;28;20116;-65
2022/10/18 03:56:44;;;;;;;29.65;20.92;;;;;;;;;;5040609;28;20792;-59
2022/10/18 03:59:10;;;;;;;32.63;21.60;;;;;;;;;;5043678;28;20036;-59
2022/10/18 04:01:35;;;;;;;30.45;19.75;;;;;;;;;;5040369;28;20035;-58
2022/10/18 04:04:00;;;;;;;33.65;21.10;;;;;;;;;;5041036;28;20163;-59
2022/10/18 04:06:25;;;;;;;30.77;22.05;;;;;;;;;;5040355;28;20064;-61
2022/10/18 04:08:51;;;;;;;31.33;20.77;;;;;;;;;;5041117;28;20040;-58
2022/10/18 04:11:16;;;;;;;32.38;21.35;;;;;;;;;;5040995;28;20032;-59
2022/10/18 04:13:41;;;;;;;30.70;19.92;;;;;;;;;;5041455;28;20530;-60
2022/10/18 04:16:06;;;;;;;31.58;21.85;;;;;;;;;;5041473;28;20037;-60
2022/10/18 04:18:32;;;;;;;29.80;21.17;;;;;;;;;;5041503;28;20083;-61
2022/10/18 04:20:57;;;;;;;30.02;21.45;;;;;;;;;;5041491;28;20095;-60
2022/10/18 04:23:23;;;;;;;29.45;20.13;;;;;;;;;;5042846;28;20391;-60
2022/10/18 04:25:48;;;;;;;36.08;22.98;;;;;;;;;;5038661;28;20025;-61
2022/10/18 04:28:13;;;;;;;33.05;21.73;;;;;;;;;;5043064;28;20055;-60
2022/10/18 04:30:38;;;;;;;29.35;21.17;;;;;;;;;;5043005;28;20032;-61
2022/10/18 04:33:04;;;;;;;35.63;20.35;;;;;;;;;;5043774;28;20025;-58
2022/10/18 04:35:29;;;;;;;30.83;20.17;;;;;;;;;;5040521;28;20040;-59
2022/10/18 04:37:54;;;;;;;30.60;20.10;;;;;;;;;;5040648;28;20120;-61
2022/10/18 04:40:19;;;;;;;29.48;19.08;;;;;;;;;;5042131;28;20842;-60
2022/10/18 04:42:45;;;;;;;30.60;20.17;;;;;;;;;;5033423;28;20035;-60
2022/10/18 04:45:10;;;;;;;35.25;23.20;;;;;;;;;;5042719;28;20798;-61
2022/10/18 04:47:35;;;;;;;32.35;19.58;;;;;;;;;;5044181;28;20366;-60
2022/10/18 04:50:01;;;;;;;29.67;19.17;;;;;;;;;;5041365;28;20175;-61
2022/10/18 04:52:26;;;;;;;31.15;19.77;;;;;;;;;;5040894;28;20483;-60
2022/10/18 04:54:51;;;;;;;37.38;20.42;;;;;;;;;;5034812;28;20035;-61
2022/10/18 04:57:16;;;;;;;31.30;19.38;;;;;;;;;;5029691;28;20041;-61
2022/10/18 04:59:41;;;;;;;30.85;19.42;;;;;;;;;;5042285;28;20121;-60
2022/10/18 05:02:07;;;;;;;27.58;18.02;;;;;;;;;;5040694;28;20803;-58
2022/10/18 05:04:32;;;;;;;29.10;19.15;;;;;;;;;;5038412;28;20640;-59
2022/10/18 05:06:57;;;;;;;26.98;18.40;;;;;;;;;;5038719;28;20416;-56
2022/10/18 05:09:23;;;;;;;27.35;18.55;;;;;;;;;;5039920;28;20480;-60
2022/10/18 05:11:49;;;;;;;29.65;19.83;;;;;;;;;;5034004;28;20043;-59
2022/10/18 05:14:14;;;;;;;30.02;19.55;;;;;;;;;;5037528;28;20099;-59
2022/10/18 05:16:39;;;;;;;31.08;19.95;;;;;;;;;;5038519;28;20045;-59
2022/10/18 05:19:05;;;;;;;25.80;18.23;;;;;;;;;;5042636;28;20081;-60
2022/10/18 05:21:30;;;;;;;31.50;19.13;;;;;;;;;;5038319;28;20174;-60
2022/10/18 05:23:55;;;;;;;27.92;18.60;;;;;;;;;;5037519;28;20112;-60
2022/10/18 05:26:21;;;;;;;28.85;18.42;;;;;;;;;;5039862;28;20085;-60
2022/10/18 05:28:47;;;;;;;27.30;18.38;;;;;;;;;;5040502;28;20053;-59
2022/10/18 05:31:13;;;;;;;31.77;19.48;;;;;;;;;;5040942;28;20136;-59
2022/10/18 05:33:38;;;;;;;31.15;20.20;;;;;;;;;;5038183;28;20460;-59
2022/10/18 05:36:03;;;;;;;24.85;17.73;;;;;;;;;;5040585;28;20040;-59
2022/10/18 05:38:29;;;;;;;26.52;18.83;;;;;;;;;;5041365;28;20017;-59
2022/10/18 05:40:55;;;;;;;29.10;19.70;;;;;;;;;;5040173;28;20026;-58
2022/10/18 05:43:20;;;;;;;22.40;17.63;;;;;;;;;;5039508;28;20012;-58
2022/10/18 05:45:49;;;;;;;27.45;19.35;;;;;;;;;;5040642;28;20029;-60
2022/10/18 05:48:15;;;;;;;29.50;19.58;;;;;;;;;;5039826;28;20028;-59
2022/10/18 05:50:40;;;;;;;27.42;19.05;;;;;;;;;;5039743;28;20539;-59
2022/10/18 05:53:05;;;;;;;29.17;19.27;;;;;;;;;;5039147;28;20468;-60
2022/10/18 05:55:30;;;;;;;27.13;19.75;;;;;;;;;;5037214;28;20115;-60
2022/10/18 05:57:55;;;;;;;26.88;18.55;;;;;;;;;;5037180;28;20048;-59
2022/10/18 06:00:21;;;;;;;28.65;20.42;;;;;;;;;;5039130;28;20492;-59
2022/10/18 06:02:46;;;;;;;33.78;20.10;;;;;;;;;;5040007;28;20059;-60
2022/10/18 06:05:11;;;;;;;28.75;18.98;;;;;;;;;;5038904;28;20036;-60
2022/10/18 06:07:36;;;;;;;35.20;19.38;;;;;;;;;;5039431;28;20115;-60
2022/10/18 06:10:02;;;;;;;39.58;18.60;;;;;;;;;;5038457;28;20119;-58
2022/10/18 06:12:27;;;;;;;39.22;20.63;;;;;;;;;;5039437;28;20029;-60
2022/10/18 06:14:52;;;;;;;45.42;19.40;;;;;;;;;;5038197;28;20057;-59
2022/10/18 06:17:18;;;;;;;28.58;18.45;;;;;;;;;;5040650;28;20460;-59
2022/10/18 06:19:43;;;;;;;38.63;19.10;;;;;;;;;;5045688;28;20522;-59
2022/10/18 06:22:09;;;;;;;30.13;18.27;;;;;;;;;;5037917;28;20052;-59
2022/10/18 06:24:34;;;;;;;26.98;16.63;;;;;;;;;;5037081;28;20035;-59
2022/10/18 06:26:59;;;;;;;27.48;17.50;;;;;;;;;;5040246;28;20590;-59
2022/10/18 06:29:25;;;;;;;23.48;16.70;;;;;;;;;;5036628;28;20040;-60
2022/10/18 06:31:50;;;;;;;22.88;16.35;;;;;;;;;;5036367;28;20060;-60
2022/10/18 06:34:15;;;;;;;21.80;15.27;;;;;;;;;;5037897;28;20044;-61
2022/10/18 06:36:40;;;;;;;20.10;15.48;;;;;;;;;;5036589;28;20040;-60
2022/10/18 06:39:06;;;;;;;20.77;16.38;;;;;;;;;;5034013;28;20033;-60
2022/10/18 06:41:31;;;;;;;23.83;16.27;;;;;;;;;;5037547;28;20029;-60
2022/10/18 06:43:57;;;;;;;18.70;15.52;;;;;;;;;;5038166;28;20024;-60
2022/10/18 06:46:23;;;;;;;18.48;14.25;;;;;;;;;;5037091;28;20033;-61
2022/10/18 06:48:48;;;;;;;20.58;16.40;;;;;;;;;;5037170;28;20035;-62
2022/10/18 06:51:14;;;;;;;21.67;15.57;;;;;;;;;;5037763;28;20059;-60
2022/10/18 06:53:39;;;;;;;20.95;15.40;;;;;;;;;;5039588;28;20776;-60
2022/10/18 06:56:05;;;;;;;20.02;16.17;;;;;;;;;;5019882;28;20401;-61
2022/10/18 06:58:31;;;;;;;25.42;15.15;;;;;;;;;;4994317;28;20022;-60
2022/10/18 07:00:56;;;;;;;22.30;16.45;;;;;;;;;;4998438;28;20822;-61
2022/10/18 07:03:22;;;;;;;17.75;13.95;;;;;;;;;;4999377;28;20069;-61
2022/10/18 07:05:48;;;;;;;19.48;14.32;;;;;;;;;;4999972;28;20033;-60
2022/10/18 07:08:13;;;;;;;16.92;14.35;;;;;;;;;;5001403;28;20034;-61
2022/10/18 07:10:38;;;;;;;18.00;14.68;;;;;;;;;;4999285;28;20029;-59
2022/10/18 07:13:03;;;;;;;17.38;15.32;;;;;;;;;;4998631;28;20542;-64
2022/10/18 07:15:29;;;;;;;18.05;13.70;;;;;;;;;;4995818;28;20107;-65
2022/10/18 07:17:54;;;;;;;16.65;13.75;;;;;;;;;;4999491;28;20118;-61
2022/10/18 07:20:19;;;;;;;16.88;14.02;;;;;;;;;;5000730;28;20429;-60
2022/10/18 07:22:44;;;;;;;19.90;15.32;;;;;;;;;;5000258;28;20037;-61
2022/10/18 07:25:10;;;;;;;21.25;15.50;;;;;;;;;;4997727;28;20038;-60
2022/10/18 07:27:37;;;;;;;18.33;14.70;;;;;;;;;;4992930;28;20018;-61
2022/10/18 07:30:03;;;;;;;18.52;14.02;;;;;;;;;;4996760;28;20049;-60
2022/10/18 07:32:28;;;;;;;20.85;14.52;;;;;;;;;;4995100;28;20046;-60
2022/10/18 07:34:53;;;;;;;15.70;13.95;;;;;;;;;;4999089;28;20380;-60
2022/10/18 07:37:19;;;;;;;19.60;14.57;;;;;;;;;;4994475;28;20088;-60
2022/10/18 07:39:44;;;;;;;14.57;12.95;;;;;;;;;;4994819;28;20025;-60
2022/10/18 07:42:09;;;;;;;17.08;14.13;;;;;;;;;;4998793;28;20477;-59
2022/10/18 07:44:34;;;;;;;17.25;13.05;;;;;;;;;;5000129;28;20156;-59
2022/10/18 07:47:00;;;;;;;17.48;14.20;;;;;;;;;;5002820;28;20060;-59
2022/10/18 07:49:25;;;;;;;16.05;14.45;;;;;;;;;;5001648;28;20056;-60
2022/10/18 07:51:50;;;;;;;15.45;13.85;;;;;;;;;;4999785;28;20029;-59
2022/10/18 07:54:15;;;;;;;16.75;14.63;;;;;;;;;;4998472;28;20026;-61
2022/10/18 07:56:41;;;;;;;18.55;15.18;;;;;;;;;;5000362;28;20039;-59
2022/10/18 07:59:08;;;;;;;17.95;14.52;;;;;;;;;;4998925;28;20111;-59
2022/10/18 08:01:33;;;;;;;16.05;14.35;;;;;;;;;;5002346;28;20056;-59
2022/10/18 08:03:59;;;;;;;18.23;15.13;;;;;;;;;;5002662;28;20572;-59
2022/10/18 08:06:25;;;;;;;19.58;15.90;;;;;;;;;;4998927;28;20051;-60
2022/10/18 08:08:51;;;;;;;20.70;14.38;;;;;;;;;;5002634;28;20993;-60
2022/10/18 08:11:17;;;;;;;18.92;14.70;;;;;;;;;;4998179;28;20034;-60
2022/10/18 08:13:42;;;;;;;22.65;17.27;;;;;;;;;;4996002;28;20936;-59
2022/10/18 08:16:09;;;;;;;18.08;16.17;;;;;;;;;;5002382;28;20029;-59
2022/10/18 08:18:35;;;;;;;16.33;14.63;;;;;;;;;;5003173;28;20156;-59
2022/10/18 08:21:00;;;;;;;20.27;14.93;;;;;;;;;;5000588;28;20381;-59
2022/10/18 08:23:25;;;;;;;18.63;14.27;;;;;;;;;;4996850;28;20033;-59
2022/10/18 08:25:51;;;;;;;19.27;14.80;;;;;;;;;;5000277;28;20018;-57
2022/10/18 08:28:16;;;;;;;13.88;12.38;;;;;;;;;;5000491;28;21034;-58
2022/10/18 08:30:41;;;;;;;16.58;12.57;;;;;;;;;;4998456;28;20041;-58
2022/10/18 08:33:07;;;;;;;13.60;11.35;;;;;;;;;;5002688;28;20041;-58
2022/10/18 08:35:32;;;;;;;21.92;14.13;;;;;;;;;;5002815;28;20030;-58
2022/10/18 08:37:58;;;;;;;16.63;13.50;;;;;;;;;;5000283;28;20618;-58
2022/10/18 08:40:25;;;;;;;18.98;11.82;;;;;;;;;;4997105;28;20772;-60
2022/10/18 08:43:07;;;;;;;16.85;12.48;;;;;;;;;;4998303;28;20030;-58
2022/10/18 08:45:37;;;;;;;16.10;11.90;;;;;;;;;;5001080;28;20404;-58
2022/10/18 08:48:03;;;;;;;13.60;12.15;;;;;;;;;;4997424;28;20146;-58
2022/10/18 08:50:34;;;;;;;17.75;14.80;;;;;;;;;;4998823;28;20069;-58
2022/10/18 08:53:18;;;;;;;17.40;13.40;;;;;;;;;;4998471;28;20468;-58
2022/10/18 08:55:45;;;;;;;14.93;11.77;;;;;;;;;;5000221;28;20438;-60
2022/10/18 08:58:19;;;;;;;15.35;13.50;;;;;;;;;;5000022;28;20828;-58
2022/10/18 09:01:03;;;;;;;13.57;12.17;;;;;;;;;;5001814;28;20057;-58
2022/10/18 09:03:39;;;;;;;14.57;12.93;;;;;;;;;;5001797;28;20033;-73
2022/10/18 09:06:14;;;;;;;14.73;13.18;;;;;;;;;;5002738;28;20045;-73
2022/10/18 09:08:46;;;;;;;15.05;12.80;;;;;;;;;;5001062;28;20034;-71
2022/10/18 09:11:11;;;;;;;17.73;13.15;;;;;;;;;;5001133;28;20610;-72
2022/10/18 09:13:50;;;;;;;16.95;12.40;;;;;;;;;;4996733;28;20026;-70
2022/10/18 09:16:34;;;;;;;14.60;12.13;;;;;;;;;;4997647;28;20018;-70
2022/10/18 09:19:08;;;;;;;15.73;12.82;;;;;;;;;;5001293;28;20153;-71
2022/10/18 09:21:48;;;;;;;16.17;12.82;;;;;;;;;;5002313;28;20029;-71
2022/10/18 09:24:17;;;;;;;14.65;13.13;;;;;;;;;;4999747;28;20065;-70
2022/10/18 09:26:44;;;;;;;18.52;13.27;;;;;;;;;;4996441;28;20034;-72
2022/10/18 09:29:33;;;;;;;19.55;14.25;;;;;;;;;;4997874;28;20029;-72
2022/10/18 09:32:03;;;;;;;16.42;11.95;;;;;;;;;;5002423;28;20056;-73
2022/10/18 09:34:47;;;;;;;14.40;11.70;;;;;;;;;;5002388;28;20033;-74
2022/10/18 09:37:15;;;;;;;15.60;12.60;;;;;;;;;;5001070;28;20029;-74
2022/10/18 09:39:40;;;;;;;14.07;12.38;;;;;;;;;;5003787;28;20044;-71
2022/10/18 09:42:05;;;;;;;15.55;12.35;;;;;;;;;;5003033;28;20022;-73
2022/10/18 09:44:37;;;;;;;18.77;14.05;;;;;;;;;;4999647;28;20025;-74
2022/10/18 09:47:15;;;;;;;18.00;16.15;;;;;;;;;;5000533;28;20049;-75
2022/10/18 09:49:46;;;;;;;14.23;12.55;;;;;;;;;;5003473;28;20026;-74
2022/10/18 09:52:17;;;;;;;14.90;13.30;;;;;;;;;;4991634;28;20077;-74
2022/10/18 09:54:45;;;;;;;14.38;12.75;;;;;;;;;;4998820;28;20156;-76
2022/10/18 09:57:22;;;;;;;15.98;12.77;;;;;;;;;;5001813;28;20050;-73
2022/10/18 09:59:49;;;;;;;16.52;13.30;;;;;;;;;;4999158;28;20859;-66
2022/10/18 10:02:15;;;;;;;19.17;15.15;;;;;;;;;;4995529;28;20053;-73
2022/10/18 10:04:40;;;;;;;15.20;13.60;;;;;;;;;;5006585;28;20113;-73
2022/10/18 10:07:07;;;;;;;17.30;14.40;;;;;;;;;;5004329;28;20117;-74
2022/10/18 10:09:40;;;;;;;16.27;12.73;;;;;;;;;;5004609;28;20026;-74
2022/10/18 10:12:23;;;;;;;15.38;13.02;;;;;;;;;;5005955;28;20425;-74
2022/10/18 10:14:48;;;;;;;15.95;13.93;;;;;;;;;;5006874;28;20493;-73
2022/10/18 10:17:25;;;;;;;15.13;13.52;;;;;;;;;;5007035;28;20046;-73
2022/10/18 10:20:00;;;;;;;16.42;12.85;;;;;;;;;;5005400;28;20031;-73
2022/10/18 10:22:28;;;;;;;17.10;13.52;;;;;;;;;;5003549;28;20033;-73
2022/10/18 10:24:54;;;;;;;19.23;14.48;;;;;;;;;;5004073;28;20087;-73
2022/10/18 10:27:28;;;;;;;19.30;14.50;;;;;;;;;;5006891;28;20038;-74
2022/10/18 10:29:56;;;;;;;20.65;15.13;;;;;;;;;;5003442;28;20572;-62
2022/10/18 10:32:22;;;;;;;18.40;13.77;;;;;;;;;;5000596;28;20045;-66
2022/10/18 10:34:48;;;;;;;17.02;13.05;;;;;;;;;;4999402;28;20022;-65
2022/10/18 10:37:24;;;;;;;15.05;13.57;;;;;;;;;;4998677;28;20108;-65
2022/10/18 10:40:09;;;;;;;16.40;13.30;;;;;;;;;;5001761;28;20106;-73
2022/10/18 10:42:36;;;;;;;19.33;12.80;;;;;;;;;;5001787;28;20025;-74
2022/10/18 10:45:02;;;;;;;18.63;14.50;;;;;;;;;;5003904;28;20034;-73
2022/10/18 10:47:31;;;;;;;17.33;15.48;;;;;;;;;;4997428;28;20397;-72
2022/10/18 10:49:57;;;;;;;17.55;14.27;;;;;;;;;;4998572;28;20034;-72
2022/10/18 10:52:23;;;;;;;17.10;14.40;;;;;;;;;;5003953;28;20382;-73
2022/10/18 10:54:48;;;;;;;16.50;14.63;;;;;;;;;;5000039;28;20041;-72
2022/10/18 10:57:15;;;;;;;15.57;13.93;;;;;;;;;;4999821;28;20167;-76
2022/10/18 10:59:44;;;;;;;17.80;14.45;;;;;;;;;;4997171;28;20100;-75
2022/10/18 11:02:12;;;;;;;22.92;16.88;;;;;;;;;;5001071;28;20026;-77
2022/10/18 11:04:39;;;;;;;18.90;16.00;;;;;;;;;;4999588;28;20025;-76
2022/10/18 11:07:13;;;;;;;17.85;15.35;;;;;;;;;;4995805;28;20038;-77
2022/10/18 11:10:00;;;;;;;15.70;13.85;;;;;;;;;;4995953;28;20117;-76
2022/10/18 11:12:34;;;;;;;17.73;15.23;;;;;;;;;;4994933;28;20022;-74
2022/10/18 11:15:09;;;;;;;24.73;17.08;;;;;;;;;;4998607;28;20185;-72
2022/10/18 11:17:40;;;;;;;21.08;17.80;;;;;;;;;;4994810;28;20049;-75
2022/10/18 11:20:11;;;;;;;18.45;15.85;;;;;;;;;;4998077;28;20026;-72
2022/10/18 11:22:57;;;;;;;18.55;15.48;;;;;;;;;;5001074;28;20584;-74
2022/10/18 11:25:25;;;;;;;17.38;15.23;;;;;;;;;;5000767;28;20096;-72
2022/10/18 11:27:56;;;;;;;16.92;14.88;;;;;;;;;;5003739;28;20558;-74
2022/10/18 11:30:29;;;;;;;22.45;18.25;;;;;;;;;;5003181;28;20030;-69
2022/10/18 11:33:02;;;;;;;20.65;17.13;;;;;;;;;;4989709;28;20029;-69
2022/10/18 11:35:27;;;;;;;18.33;15.80;;;;;;;;;;5000381;28;20030;-70
2022/10/18 11:37:57;;;;;;;17.00;15.20;;;;;;;;;;5004395;28;20083;-69
2022/10/18 11:40:30;;;;;;;20.98;15.75;;;;;;;;;;5002198;28;20038;-68
2022/10/18 11:42:55;;;;;;;19.98;15.45;;;;;;;;;;5000624;28;20025;-70
2022/10/18 11:45:39;;;;;;;18.60;16.05;;;;;;;;;;5001325;28;20483;-69
2022/10/18 11:48:15;;;;;;;16.50;14.75;;;;;;;;;;5004346;28;20025;-69
2022/10/18 11:50:49;;;;;;;20.13;16.33;;;;;;;;;;5004423;28;20025;-69
2022/10/18 11:53:38;;;;;;;21.57;16.60;;;;;;;;;;5002773;28;20030;-68
2022/10/18 11:56:06;;;;;;;17.83;14.73;;;;;;;;;;4998563;28;20280;-71
2022/10/18 11:58:41;;;;;;;21.55;15.32;;;;;;;;;;5000051;28;20046;-68
2022/10/18 12:01:14;;;;;;;18.90;15.10;;;;;;;;;;4998208;28;20489;-68
2022/10/18 12:03:49;;;;;;;17.35;14.88;;;;;;;;;;5001470;28;20571;-69
2022/10/18 12:06:18;;;;;;;15.93;14.23;;;;;;;;;;5001308;28;20355;-72
2022/10/18 12:08:55;;;;;;;16.90;14.88;;;;;;;;;;4999856;28;20033;-72
2022/10/18 12:11:25;;;;;;;20.88;14.57;;;;;;;;;;4999879;28;20042;-73
2022/10/18 12:13:52;;;;;;;18.30;14.63;;;;;;;;;;5003660;28;20754;-71
2022/10/18 12:16:19;;;;;;;22.23;15.02;;;;;;;;;;4999100;28;20025;-71
2022/10/18 12:18:47;;;;;;;15.82;14.20;;;;;;;;;;4997886;28;20053;-70
2022/10/18 12:21:12;;;;;;;16.88;14.57;;;;;;;;;;5000086;28;20034;-70
2022/10/18 12:23:46;;;;;;;24.15;15.63;;;;;;;;;;5003089;28;20574;-70
2022/10/18 12:26:11;;;;;;;20.73;13.95;;;;;;;;;;4998721;28;20803;-70
2022/10/18 12:28:46;;;;;;;23.38;14.60;;;;;;;;;;4998012;28;20054;-71
2022/10/18 12:31:23;;;;;;;18.67;13.32;;;;;;;;;;4998823;28;20026;-70
2022/10/18 12:33:50;;;;;;;16.75;13.27;;;;;;;;;;5001359;28;20034;-70
2022/10/18 12:36:24;;;;;;;20.52;13.68;;;;;;;;;;5004856;28;20112;-70
2022/10/18 12:38:57;;;;;;;17.65;14.15;;;;;;;;;;4995860;28;21106;-70
2022/10/18 12:42:17;;;;;;;19.08;13.90;;;;;;;;;;4999911;28;20038;-70
2022/10/18 12:44:47;;;;;;;21.98;12.90;;;;;;;;;;4992687;28;20033;-70
2022/10/18 12:47:25;;;;;;;19.15;13.75;;;;;;;;;;4998930;28;20045;-70
2022/10/18 12:49:55;;;;;;;15.32;13.73;;;;;;;;;;5001404;28;20022;-70
2022/10/18 12:52:26;;;;;;;18.73;13.20;;;;;;;;;;5001227;28;20034;-69
2022/10/18 12:55:24;;;;;;;15.52;13.32;;;;;;;;;;5000661;28;20029;-70
2022/10/18 12:57:52;;;;;;;21.98;12.38;;;;;;;;;;4995749;28;20058;-70
2022/10/18 13:00:32;;;;;;;17.90;13.82;;;;;;;;;;5002368;28;20030;-69
2022/10/18 13:03:15;;;;;;;14.38;12.98;;;;;;;;;;4999571;28;20025;-70
2022/10/18 13:05:49;;;;;;;21.30;14.15;;;;;;;;;;4998227;28;20029;-71
2022/10/18 13:08:49;;;;;;;13.88;12.48;;;;;;;;;;5002617;28;20064;-72
2022/10/18 13:11:32;;;;;;;16.85;13.38;;;;;;;;;;5000783;28;20034;-70
2022/10/18 13:14:06;;;;;;;16.38;11.98;;;;;;;;;;5000013;28;20053;-68
2022/10/18 13:16:46;;;;;;;14.93;11.60;;;;;;;;;;5001647;28;20033;-71
2022/10/18 13:19:32;;;;;;;15.05;12.52;;;;;;;;;;5003492;28;20029;-71
2022/10/18 13:22:17;;;;;;;15.10;11.85;;;;;;;;;;5001443;28;20569;-71
2022/10/18 13:25:20;;;;;;;13.32;11.93;;;;;;;;;;5000771;28;20208;-70
2022/10/18 13:31:08;;;;;;;15.98;12.50;;;;;;;;;;4943246;28;20035;-69
2022/10/18 13:33:38;;;;;;;15.00;13.32;;;;;;;;;;4963504;28;20110;-69
2022/10/18 13:36:47;;;;;;;14.68;11.63;;;;;;;;;;4945342;28;20202;-69
2022/10/18 13:39:20;;;;;;;13.57;11.88;;;;;;;;;;4961720;28;20087;-68
2022/10/18 13:41:49;;;;;;;16.98;12.95;;;;;;;;;;4963199;28;20561;-70
2022/10/18 13:44:40;;;;;;;12.20;11.10;;;;;;;;;;4961914;28;20702;-70
2022/10/18 13:47:05;;;;;;;14.13;11.45;;;;;;;;;;4961733;28;20030;-69
2022/10/18 13:49:37;;;;;;;14.55;13.18;;;;;;;;;;4961982;28;20622;-69
2022/10/18 13:52:50;;;;;;;14.05;12.50;;;;;;;;;;4962024;28;20041;-70
2022/10/18 13:55:26;;;;;;;17.05;13.95;;;;;;;;;;4947580;28;20050;-71
2022/10/18 13:58:12;;;;;;;15.20;12.77;;;;;;;;;;4968041;28;20054;-71
2022/10/18 14:00:43;;;;;;;14.88;12.05;;;;;;;;;;4994192;28;20034;-70
2022/10/18 14:03:27;;;;;;;15.00;13.35;;;;;;;;;;4999144;28;20060;-71
2022/10/18 14:06:03;;;;;;;13.43;12.02;;;;;;;;;;4992366;28;20022;-70
2022/10/18 14:08:28;;;;;;;13.70;11.68;;;;;;;;;;5003806;28;20040;-71
2022/10/18 14:11:02;;;;;;;14.68;13.18;;;;;;;;;;5000824;28;20021;-71
2022/10/18 14:13:57;;;;;;;16.23;11.50;;;;;;;;;;4999175;28;20490;-69
2022/10/18 14:16:42;;;;;;;15.55;11.32;;;;;;;;;;4997487;28;20046;-68
2022/10/18 14:19:27;;;;;;;13.90;12.00;;;;;;;;;;4999891;28;20034;-68
2022/10/18 14:21:57;;;;;;;15.15;13.23;;;;;;;;;;4943044;23;20055;-57
2022/10/18 14:24:23;;;;;;;16.20;12.45;;;;;;;;;;4944814;28;20145;-60
2022/10/18 14:27:07;;;;;;;15.15;11.18;;;;;;;;;;4959260;28;20046;-61
2022/10/18 14:29:32;;;;;;;13.25;11.88;;;;;;;;;;4964236;28;20085;-58
2022/10/18 14:31:58;;;;;;;13.55;12.05;;;;;;;;;;4965005;28;20259;-60
2022/10/18 14:34:24;;;;;;;16.58;12.35;;;;;;;;;;4963394;28;20450;-60